createdAt,value
2023-05-25T00:00:01.130Z,11.7
2023-05-25T00:01:03.974Z,11.7
2023-05-25T00:02:00.243Z,11.6
2023-05-25T00:03:00.511Z,11.6
2023-05-25T00:04:00.756Z,11.6
2023-05-25T00:05:01.167Z,11.6
2023-05-25T00:06:07.776Z,11.6
2023-05-25T00:07:01.795Z,11.6
2023-05-25T00:08:02.726Z,11.6
2023-05-25T00:09:01.780Z,11.6
2023-05-25T00:10:01.092Z,11.6
2023-05-25T00:11:11.992Z,11.6
2023-05-25T00:12:01.075Z,11.6
2023-05-25T00:13:01.100Z,11.6
2023-05-25T00:14:01.450Z,11.6
2023-05-25T00:15:01.581Z,11.6
2023-05-25T00:16:14.108Z,11.6
2023-05-25T00:17:01.068Z,11.6
2023-05-25T00:18:01.836Z,11.6
2023-05-25T00:19:01.151Z,11.6
2023-05-25T00:20:01.565Z,11.6
2023-05-25T00:21:16.677Z,11.6
2023-05-25T00:22:01.049Z,11.6
2023-05-25T00:23:01.087Z,11.6
2023-05-25T00:24:01.080Z,11.6
2023-05-25T00:25:01.069Z,11.6
2023-05-25T00:26:01.066Z,11.6
2023-05-25T00:27:01.041Z,11.6
2023-05-25T00:28:01.022Z,11.6
2023-05-25T00:29:01.486Z,11.6
2023-05-25T00:30:01.010Z,11.6
2023-05-25T00:31:01.066Z,11.6
2023-05-25T00:32:01.754Z,11.6
2023-05-25T00:33:01.881Z,11.5
2023-05-25T00:34:01.764Z,11.5
2023-05-25T00:35:01.356Z,11.5
2023-05-25T00:36:01.047Z,11.5
2023-05-25T00:37:01.429Z,11.5
2023-05-25T00:38:02.729Z,11.4
2023-05-25T00:39:01.120Z,11.4
2023-05-25T00:40:01.067Z,11.4
2023-05-25T00:41:01.074Z,11.4
2023-05-25T00:42:01.055Z,11.4
2023-05-25T00:43:01.078Z,11.3
2023-05-25T00:44:01.087Z,11.4
2023-05-25T00:45:01.096Z,11.3
2023-05-25T00:46:01.167Z,11.3
2023-05-25T00:47:02.250Z,11.3
2023-05-25T00:48:01.141Z,11.3
2023-05-25T00:49:01.414Z,11.3
2023-05-25T00:50:02.136Z,11.3
2023-05-25T00:51:02.095Z,11.3
2023-05-25T00:52:01.037Z,11.3
2023-05-25T00:53:01.037Z,11.3
2023-05-25T00:54:01.061Z,11.3
2023-05-25T00:55:01.043Z,11.3
2023-05-25T00:56:01.088Z,11.3
2023-05-25T00:57:01.440Z,11.3
2023-05-25T00:58:01.354Z,11.3
2023-05-25T00:59:00.977Z,11.2
2023-05-25T01:00:01.099Z,11.2
2023-05-25T01:01:01.098Z,11.1
2023-05-25T01:02:01.142Z,11.1
2023-05-25T01:03:01.208Z,11.1
2023-05-25T01:04:01.828Z,11.1
2023-05-25T01:05:01.515Z,11.1
2023-05-25T01:06:02.562Z,11.1
2023-05-25T01:07:01.136Z,11.1
2023-05-25T01:08:01.044Z,11.1
2023-05-25T01:09:01.075Z,11.1
2023-05-25T01:10:01.098Z,11.1
2023-05-25T01:11:01.048Z,11.1
2023-05-25T01:12:01.106Z,11.1
2023-05-25T01:13:01.480Z,11.1
2023-05-25T01:14:00.813Z,11.2
2023-05-25T01:15:01.082Z,11.1
2023-05-25T01:16:01.102Z,11.1
2023-05-25T01:17:01.054Z,11.1
2023-05-25T01:18:01.111Z,11.2
2023-05-25T01:19:01.116Z,11.1
2023-05-25T01:20:09.492Z,11.1
2023-05-25T01:21:01.849Z,11.1
2023-05-25T01:22:01.504Z,11.1
2023-05-25T01:23:01.225Z,11.2
2023-05-25T01:24:01.036Z,11.2
2023-05-25T01:25:01.034Z,11.1
2023-05-25T01:26:01.061Z,11.1
2023-05-25T01:27:01.427Z,11.1
2023-05-25T01:28:01.017Z,11.1
2023-05-25T01:29:01.024Z,11.1
2023-05-25T01:30:01.067Z,11.1
2023-05-25T01:31:01.179Z,11.1
2023-05-25T01:32:01.944Z,11
2023-05-25T01:33:03.359Z,11
2023-05-25T01:34:02.066Z,11
2023-05-25T01:35:04.594Z,11
2023-05-25T01:36:01.116Z,11
2023-05-25T01:37:04.482Z,11.1
2023-05-25T01:38:01.145Z,11.1
2023-05-25T01:39:01.235Z,11.1
2023-05-25T01:40:01.740Z,11.1
2023-05-25T01:41:01.847Z,11.1
2023-05-25T01:42:06.036Z,11.1
2023-05-25T01:43:01.557Z,11.1
2023-05-25T01:44:01.121Z,11.1
2023-05-25T01:45:01.100Z,11.1
2023-05-25T01:46:01.503Z,11.1
2023-05-25T01:47:08.234Z,11.1
2023-05-25T01:48:01.484Z,11
2023-05-25T01:49:00.823Z,11
2023-05-25T01:50:00.523Z,11
2023-05-25T01:51:00.277Z,11
2023-05-25T01:52:09.857Z,11
2023-05-25T01:53:01.109Z,11
2023-05-25T01:54:01.435Z,11
2023-05-25T01:55:01.145Z,11
2023-05-25T01:56:01.100Z,11
2023-05-25T01:57:13.946Z,11
2023-05-25T01:58:01.553Z,11
2023-05-25T01:59:01.059Z,11
2023-05-25T02:00:01.041Z,11
2023-05-25T02:01:02.139Z,11
2023-05-25T02:02:16.436Z,11
2023-05-25T02:03:02.239Z,11
2023-05-25T02:04:01.008Z,11
2023-05-25T02:05:01.093Z,11
2023-05-25T02:06:01.161Z,11
2023-05-25T02:07:01.930Z,11
2023-05-25T02:08:01.152Z,11
2023-05-25T02:09:00.630Z,11
2023-05-25T02:10:00.218Z,11
2023-05-25T02:10:59.955Z,11
2023-05-25T02:11:59.583Z,11
2023-05-25T02:13:02.151Z,11
2023-05-25T02:14:02.814Z,11
2023-05-25T02:15:01.059Z,11
2023-05-25T02:16:01.095Z,11
2023-05-25T02:17:01.025Z,11
2023-05-25T02:18:01.242Z,10.9
2023-05-25T02:19:01.403Z,11
2023-05-25T02:20:01.327Z,10.9
2023-05-25T02:21:02.094Z,10.9
2023-05-25T02:22:02.306Z,10.9
2023-05-25T02:23:01.101Z,10.9
2023-05-25T02:24:01.045Z,10.9
2023-05-25T02:25:01.054Z,10.8
2023-05-25T02:26:01.237Z,10.8
2023-05-25T02:27:01.164Z,10.8
2023-05-25T02:28:01.080Z,10.8
2023-05-25T02:29:00.780Z,10.8
2023-05-25T02:30:00.331Z,10.8
2023-05-25T02:30:59.914Z,10.8
2023-05-25T02:31:59.514Z,10.8
2023-05-25T02:33:01.806Z,10.8
2023-05-25T02:34:00.991Z,10.8
2023-05-25T02:35:01.072Z,10.8
2023-05-25T02:36:01.078Z,10.8
2023-05-25T02:37:01.112Z,10.8
2023-05-25T02:38:01.442Z,10.8
2023-05-25T02:39:01.146Z,10.8
2023-05-25T02:40:01.161Z,10.8
2023-05-25T02:41:01.817Z,10.8
2023-05-25T02:42:01.779Z,10.8
2023-05-25T02:43:01.442Z,10.8
2023-05-25T02:44:01.018Z,10.8
2023-05-25T02:45:00.728Z,10.8
2023-05-25T02:46:00.718Z,10.7
2023-05-25T02:47:00.510Z,10.7
2023-05-25T02:48:00.372Z,10.6
2023-05-25T02:49:00.031Z,10.6
2023-05-25T02:49:59.577Z,10.6
2023-05-25T02:51:01.746Z,10.6
2023-05-25T02:52:01.090Z,10.6
2023-05-25T02:53:01.344Z,10.6
2023-05-25T02:54:02.000Z,10.6
2023-05-25T02:55:01.964Z,10.6
2023-05-25T02:56:01.787Z,10.6
2023-05-25T02:57:01.122Z,10.6
2023-05-25T02:58:01.132Z,10.5
2023-05-25T02:59:01.031Z,10.5
2023-05-25T03:00:01.044Z,10.5
2023-05-25T03:01:01.179Z,10.5
2023-05-25T03:02:01.964Z,10.5
2023-05-25T03:03:01.228Z,10.5
2023-05-25T03:04:01.194Z,10.5
2023-05-25T03:05:03.835Z,10.5
2023-05-25T03:06:01.350Z,10.5
2023-05-25T03:07:01.837Z,10.5
2023-05-25T03:08:02.099Z,10.5
2023-05-25T03:09:01.740Z,10.5
2023-05-25T03:10:01.118Z,10.5
2023-05-25T03:11:01.138Z,10.5
2023-05-25T03:12:01.017Z,10.5
2023-05-25T03:13:01.507Z,10.5
2023-05-25T03:14:01.500Z,10.5
2023-05-25T03:15:01.063Z,10.5
2023-05-25T03:16:01.046Z,10.5
2023-05-25T03:17:01.191Z,10.5
2023-05-25T03:18:01.113Z,10.5
2023-05-25T03:19:01.036Z,10.5
2023-05-25T03:20:01.084Z,10.5
2023-05-25T03:21:01.072Z,10.5
2023-05-25T03:22:01.062Z,10.5
2023-05-25T03:23:03.410Z,10.5
2023-05-25T03:24:01.851Z,10.5
2023-05-25T03:25:01.111Z,10.5
2023-05-25T03:26:01.790Z,10.5
2023-05-25T03:27:01.491Z,10.5
2023-05-25T03:28:07.628Z,10.5
2023-05-25T03:29:01.103Z,10.5
2023-05-25T03:30:01.057Z,10.5
2023-05-25T03:31:01.034Z,10.5
2023-05-25T03:32:01.068Z,10.5
2023-05-25T03:33:11.277Z,10.5
2023-05-25T03:34:01.851Z,10.5
2023-05-25T03:35:02.545Z,10.5
2023-05-25T03:36:01.494Z,10.5
2023-05-25T03:37:01.071Z,10.5
2023-05-25T03:38:13.396Z,10.5
2023-05-25T03:39:00.668Z,10.5
2023-05-25T03:40:00.330Z,10.5
2023-05-25T03:40:59.899Z,10.6
2023-05-25T03:41:59.449Z,10.6
2023-05-25T03:43:16.373Z,10.6
2023-05-25T03:44:01.044Z,10.7
2023-05-25T03:45:00.712Z,10.7
2023-05-25T03:46:00.262Z,10.8
2023-05-25T03:46:59.897Z,10.8
2023-05-25T03:47:59.515Z,10.9
2023-05-25T03:49:01.073Z,10.9
2023-05-25T03:50:01.017Z,11
2023-05-25T03:51:01.054Z,11
2023-05-25T03:52:01.060Z,11.1
2023-05-25T03:53:01.081Z,11.1
2023-05-25T03:54:01.194Z,11.1
2023-05-25T03:55:01.044Z,11.1
2023-05-25T03:56:01.099Z,11.1
2023-05-25T03:57:01.122Z,11.1
2023-05-25T03:58:01.106Z,11.2
2023-05-25T03:59:01.100Z,11.2
2023-05-25T04:00:01.289Z,11.3
2023-05-25T04:01:04.362Z,11.3
2023-05-25T04:02:01.021Z,11.4
2023-05-25T04:03:00.902Z,11.5
2023-05-25T04:04:00.790Z,11.5
2023-05-25T04:05:00.530Z,11.5
2023-05-25T04:06:00.225Z,11.6
2023-05-25T04:06:59.920Z,11.6
2023-05-25T04:07:59.642Z,11.7
2023-05-25T04:09:01.749Z,11.8
2023-05-25T04:10:01.433Z,11.8
2023-05-25T04:11:01.108Z,11.8
2023-05-25T04:12:01.099Z,11.9
2023-05-25T04:13:01.092Z,12
2023-05-25T04:14:01.297Z,12
2023-05-25T04:15:01.113Z,12
2023-05-25T04:16:01.039Z,12.1
2023-05-25T04:17:01.014Z,12.1
2023-05-25T04:18:01.197Z,12.1
2023-05-25T04:19:01.520Z,12.1
2023-05-25T04:20:01.081Z,12.2
2023-05-25T04:21:01.049Z,12.2
2023-05-25T04:22:01.035Z,12.3
2023-05-25T04:23:03.200Z,12.3
2023-05-25T04:24:01.067Z,12.3
2023-05-25T04:25:01.009Z,12.3
2023-05-25T04:26:01.066Z,12.4
2023-05-25T04:27:05.098Z,12.4
2023-05-25T04:28:01.431Z,12.5
2023-05-25T04:29:02.333Z,12.5
2023-05-25T04:30:01.714Z,12.5
2023-05-25T04:31:01.538Z,12.5
2023-05-25T04:32:01.331Z,12.6
2023-05-25T04:33:01.185Z,12.6
2023-05-25T04:34:01.131Z,12.6
2023-05-25T04:35:01.083Z,12.6
2023-05-25T04:36:01.748Z,12.7
2023-05-25T04:37:01.928Z,12.7
2023-05-25T04:38:01.837Z,12.7
2023-05-25T04:39:01.069Z,12.8
2023-05-25T04:40:01.060Z,12.8
2023-05-25T04:41:02.394Z,12.8
2023-05-25T04:42:01.136Z,12.8
2023-05-25T04:43:01.114Z,12.9
2023-05-25T04:44:06.964Z,13
2023-05-25T04:45:00.887Z,13
2023-05-25T04:46:01.301Z,13
2023-05-25T04:47:01.814Z,13
2023-05-25T04:48:02.109Z,13
2023-05-25T04:49:01.584Z,13.1
2023-05-25T04:50:01.742Z,13.1
2023-05-25T04:51:01.218Z,13.1
2023-05-25T04:52:02.084Z,13.1
2023-05-25T04:53:01.971Z,13.1
2023-05-25T04:54:01.622Z,13.2
2023-05-25T04:55:01.069Z,13.2
2023-05-25T04:56:01.064Z,13.2
2023-05-25T04:57:01.362Z,13.2
2023-05-25T04:58:01.084Z,13.2
2023-05-25T04:59:05.103Z,13.2
2023-05-25T05:00:01.088Z,13.3
2023-05-25T05:01:01.088Z,13.2
2023-05-25T05:02:01.354Z,13.3
2023-05-25T05:03:01.529Z,13.3
2023-05-25T05:04:07.760Z,13.3
2023-05-25T05:05:01.450Z,13.4
2023-05-25T05:06:01.114Z,13.4
2023-05-25T05:07:01.671Z,13.5
2023-05-25T05:08:01.036Z,13.5
2023-05-25T05:09:11.539Z,13.6
2023-05-25T05:10:01.730Z,13.6
2023-05-25T05:11:01.709Z,13.7
2023-05-25T05:12:01.472Z,13.8
2023-05-25T05:13:01.267Z,13.8
2023-05-25T05:14:14.661Z,13.9
2023-05-25T05:15:02.045Z,13.9
2023-05-25T05:16:02.037Z,13.9
2023-05-25T05:17:01.767Z,14
2023-05-25T05:18:02.024Z,14
2023-05-25T05:19:01.365Z,14
2023-05-25T05:20:01.158Z,14.1
2023-05-25T05:21:01.220Z,14.1
2023-05-25T05:22:01.226Z,14.2
2023-05-25T05:23:01.738Z,14.3
2023-05-25T05:24:01.427Z,14.3
2023-05-25T05:25:01.044Z,14.5
2023-05-25T05:26:01.048Z,14.6
2023-05-25T05:27:03.996Z,14.7
2023-05-25T05:28:01.655Z,14.8
2023-05-25T05:29:01.783Z,15
2023-05-25T05:30:01.096Z,15.1
2023-05-25T05:31:02.181Z,15.2
2023-05-25T05:32:02.106Z,15.3
2023-05-25T05:33:04.611Z,15.5
2023-05-25T05:34:02.185Z,15.5
2023-05-25T05:35:01.316Z,15.6
2023-05-25T05:36:01.118Z,15.6
2023-05-25T05:37:01.112Z,15.6
2023-05-25T05:38:01.117Z,15.7
2023-05-25T05:39:01.515Z,15.8
2023-05-25T05:40:01.228Z,15.8
2023-05-25T05:41:01.451Z,15.8
2023-05-25T05:42:04.418Z,15.8
2023-05-25T05:43:02.878Z,15.8
2023-05-25T05:44:01.080Z,16
2023-05-25T05:45:00.722Z,16.1
2023-05-25T05:46:00.363Z,16.3
2023-05-25T05:47:01.409Z,16.4
2023-05-25T05:48:01.127Z,16.5
2023-05-25T05:49:01.592Z,16.5
2023-05-25T05:50:01.493Z,16.5
2023-05-25T05:51:01.489Z,16.6
2023-05-25T05:52:02.259Z,16.6
2023-05-25T05:53:01.239Z,16.7
2023-05-25T05:54:01.053Z,16.6
2023-05-25T05:55:01.039Z,16.6
2023-05-25T05:56:01.529Z,16.6
2023-05-25T05:57:01.893Z,16.5
2023-05-25T05:58:01.446Z,16.5
2023-05-25T05:59:01.204Z,16.4
2023-05-25T06:00:01.026Z,16.3
2023-05-25T06:01:01.629Z,16.2
2023-05-25T06:02:01.753Z,16.1
2023-05-25T06:03:01.774Z,16.1
2023-05-25T06:04:02.102Z,16.1
2023-05-25T06:05:01.104Z,16
2023-05-25T06:06:01.778Z,15.8
2023-05-25T06:07:01.491Z,15.7
2023-05-25T06:08:01.777Z,15.6
2023-05-25T06:09:01.111Z,15.6
2023-05-25T06:10:01.186Z,15.5
2023-05-25T06:11:01.945Z,15.5
2023-05-25T06:12:01.712Z,15.5
2023-05-25T06:13:01.412Z,15.5
2023-05-25T06:14:01.098Z,15.6
2023-05-25T06:15:01.563Z,15.7
2023-05-25T06:16:01.790Z,15.8
2023-05-25T06:17:01.618Z,15.8
2023-05-25T06:18:01.493Z,15.8
2023-05-25T06:19:01.101Z,15.8
2023-05-25T06:20:01.107Z,15.8
2023-05-25T06:21:01.518Z,15.8
2023-05-25T06:22:00.914Z,15.7
2023-05-25T06:23:00.702Z,15.6
2023-05-25T06:24:00.516Z,15.6
2023-05-25T06:25:01.367Z,15.6
2023-05-25T06:26:01.134Z,15.5
2023-05-25T06:27:01.257Z,15.4
2023-05-25T06:28:01.946Z,15.3
2023-05-25T06:29:01.050Z,15.1
2023-05-25T06:30:01.049Z,15
2023-05-25T06:31:01.089Z,14.8
2023-05-25T06:32:01.100Z,14.7
2023-05-25T06:33:01.104Z,14.6
2023-05-25T06:34:01.066Z,14.6
2023-05-25T06:35:01.454Z,14.6
2023-05-25T06:36:01.107Z,14.6
2023-05-25T06:37:01.097Z,14.6
2023-05-25T06:38:01.094Z,14.5
2023-05-25T06:39:01.708Z,14.5
2023-05-25T06:40:04.117Z,14.5
2023-05-25T06:41:01.689Z,14.3
2023-05-25T06:42:01.340Z,14.3
2023-05-25T06:43:02.053Z,14.3
2023-05-25T06:44:02.688Z,14.3
2023-05-25T06:45:08.130Z,14.3
2023-05-25T06:46:00.805Z,14.3
2023-05-25T06:47:01.149Z,14.3
2023-05-25T06:48:00.954Z,14.3
2023-05-25T06:49:00.746Z,14.3
2023-05-25T06:50:09.989Z,14.3
2023-05-25T06:51:01.577Z,14.3
2023-05-25T06:52:01.769Z,14.3
2023-05-25T06:53:01.487Z,14.3
2023-05-25T06:54:02.201Z,14.3
2023-05-25T06:55:14.178Z,14.3
2023-05-25T06:56:00.839Z,14.4
2023-05-25T06:57:00.574Z,14.5
2023-05-25T06:58:00.300Z,14.4
2023-05-25T06:59:00.050Z,14.5
2023-05-25T06:59:59.706Z,14.5
2023-05-25T07:01:02.984Z,14.6
2023-05-25T07:02:01.069Z,14.6
2023-05-25T07:03:01.077Z,14.6
2023-05-25T07:04:01.068Z,14.6
2023-05-25T07:05:01.062Z,14.6
2023-05-25T07:06:00.857Z,14.6
2023-05-25T07:07:01.094Z,14.7
2023-05-25T07:08:01.104Z,14.6
2023-05-25T07:09:01.108Z,14.6
2023-05-25T07:10:01.117Z,14.6
2023-05-25T07:11:01.236Z,14.6
2023-05-25T07:12:01.119Z,14.6
2023-05-25T07:13:01.122Z,14.7
2023-05-25T07:14:01.016Z,14.8
2023-05-25T07:15:01.062Z,14.8
2023-05-25T07:16:01.312Z,14.9
2023-05-25T07:17:01.256Z,14.9
2023-05-25T07:18:01.516Z,14.9
2023-05-25T07:19:01.750Z,15
2023-05-25T07:20:01.161Z,14.9
2023-05-25T07:21:02.240Z,14.9
2023-05-25T07:22:01.782Z,15
2023-05-25T07:23:01.909Z,15
2023-05-25T07:24:01.392Z,15
2023-05-25T07:25:01.087Z,14.9
2023-05-25T07:26:02.475Z,14.9
2023-05-25T07:27:02.333Z,14.9
2023-05-25T07:28:01.138Z,14.9
2023-05-25T07:29:01.165Z,15
2023-05-25T07:30:01.143Z,15
2023-05-25T07:31:02.746Z,15
2023-05-25T07:32:01.122Z,15.1
2023-05-25T07:33:01.155Z,15.1
2023-05-25T07:34:01.197Z,15.1
2023-05-25T07:35:01.523Z,15.2
2023-05-25T07:36:01.147Z,15.2
2023-05-25T07:37:01.168Z,15.2
2023-05-25T07:38:01.192Z,15.3
2023-05-25T07:39:02.152Z,15.3
2023-05-25T07:40:01.911Z,15.3
2023-05-25T07:41:01.734Z,15.3
2023-05-25T07:42:01.390Z,15.3
2023-05-25T07:43:02.508Z,15.3
2023-05-25T07:44:02.734Z,15.3
2023-05-25T07:45:01.218Z,15.3
2023-05-25T07:46:01.964Z,15.3
2023-05-25T07:47:00.670Z,15.3
2023-05-25T07:48:00.353Z,15.3
2023-05-25T07:49:00.052Z,15.3
2023-05-25T07:49:59.635Z,15.3
2023-05-25T07:51:01.407Z,15.3
2023-05-25T07:52:01.101Z,15.4
2023-05-25T07:53:01.073Z,15.5
2023-05-25T07:54:01.083Z,15.5
2023-05-25T07:55:01.149Z,15.5
2023-05-25T07:56:01.033Z,15.5
2023-05-25T07:57:01.493Z,15.5
2023-05-25T07:58:02.163Z,15.5
2023-05-25T07:59:01.134Z,15.6
2023-05-25T08:00:01.149Z,15.6
2023-05-25T08:01:01.763Z,15.6
2023-05-25T08:02:01.448Z,15.6
2023-05-25T08:03:01.295Z,15.6
2023-05-25T08:04:01.182Z,15.6
2023-05-25T08:05:01.625Z,15.7
2023-05-25T08:06:01.321Z,15.6
2023-05-25T08:07:01.433Z,15.7
2023-05-25T08:08:01.083Z,15.7
2023-05-25T08:09:01.203Z,15.7
2023-05-25T08:10:01.260Z,15.7
2023-05-25T08:11:01.834Z,15.7
2023-05-25T08:12:23.941Z,15.7
2023-05-25T08:13:01.485Z,15.8
2023-05-25T08:14:01.504Z,15.8
2023-05-25T08:15:01.123Z,15.8
2023-05-25T08:16:03.456Z,15.8
2023-05-25T08:17:02.094Z,15.8
2023-05-25T08:18:01.414Z,15.8
2023-05-25T08:19:01.110Z,15.9
2023-05-25T08:20:01.131Z,16
2023-05-25T08:21:04.669Z,16
2023-05-25T08:22:01.358Z,16
2023-05-25T08:23:01.572Z,16
2023-05-25T08:24:01.478Z,16.1
2023-05-25T08:25:01.351Z,16.1
2023-05-25T08:26:20.427Z,16.1
2023-05-25T08:27:01.085Z,16.2
2023-05-25T08:28:01.031Z,16.3
2023-05-25T08:29:01.046Z,16.3
2023-05-25T08:30:01.017Z,16.4
2023-05-25T08:31:10.162Z,16.4
2023-05-25T08:32:01.800Z,16.5
2023-05-25T08:33:00.943Z,16.5
2023-05-25T08:34:01.897Z,16.5
2023-05-25T08:35:01.735Z,16.5
2023-05-25T08:36:12.599Z,16.6
2023-05-25T08:37:01.427Z,16.6
2023-05-25T08:38:01.079Z,16.6
2023-05-25T08:39:01.111Z,16.7
2023-05-25T08:40:01.079Z,16.7
2023-05-25T08:41:15.829Z,16.7
2023-05-25T08:42:02.533Z,16.7
2023-05-25T08:43:01.702Z,16.7
2023-05-25T08:44:01.094Z,16.8
2023-05-25T08:45:01.096Z,16.8
2023-05-25T08:46:01.285Z,16.8
2023-05-25T08:47:01.020Z,16.9
2023-05-25T08:48:01.147Z,17
2023-05-25T08:49:00.771Z,17
2023-05-25T08:50:01.160Z,17
2023-05-25T08:51:01.893Z,17.1
2023-05-25T08:52:01.432Z,17.1
2023-05-25T08:53:01.059Z,17.2
2023-05-25T08:54:01.207Z,17.3
2023-05-25T08:55:01.059Z,17.3
2023-05-25T08:56:01.031Z,17.3
2023-05-25T08:57:01.069Z,17.3
2023-05-25T08:58:01.034Z,17.2
2023-05-25T08:59:01.016Z,17.3
2023-05-25T09:00:01.116Z,17.2
2023-05-25T09:01:01.222Z,17.3
2023-05-25T09:02:01.115Z,17.3
2023-05-25T09:03:01.230Z,17.3
2023-05-25T09:04:01.236Z,17.3
2023-05-25T09:05:02.506Z,17.3
2023-05-25T09:06:01.171Z,17.3
2023-05-25T09:07:09.623Z,17.4
2023-05-25T09:08:01.762Z,17.5
2023-05-25T09:09:01.521Z,17.5
2023-05-25T09:10:01.143Z,17.6
2023-05-25T09:11:03.854Z,17.6
2023-05-25T09:12:01.079Z,17.6
2023-05-25T09:13:12.772Z,17.6
2023-05-25T09:14:01.156Z,17.6
2023-05-25T09:15:01.114Z,17.6
2023-05-25T09:16:01.144Z,17.6
2023-05-25T09:17:01.501Z,17.5
2023-05-25T09:18:01.548Z,17.5
2023-05-25T09:19:01.134Z,17.5
2023-05-25T09:20:01.170Z,17.5
2023-05-25T09:21:01.071Z,17.5
2023-05-25T09:22:14.093Z,17.5
2023-05-25T09:23:01.054Z,17.5
2023-05-25T09:24:01.152Z,17.5
2023-05-25T09:25:01.087Z,17.5
2023-05-25T09:26:01.104Z,17.5
2023-05-25T09:27:01.218Z,17.5
2023-05-25T09:28:10.183Z,17.6
2023-05-25T09:29:01.078Z,17.6
2023-05-25T09:30:01.123Z,17.6
2023-05-25T09:31:01.046Z,17.7
2023-05-25T09:32:01.103Z,17.8
2023-05-25T09:33:01.138Z,17.8
2023-05-25T09:34:01.561Z,17.9
2023-05-25T09:35:01.844Z,18
2023-05-25T09:36:01.193Z,18.1
2023-05-25T09:37:01.515Z,18.1
2023-05-25T09:38:01.336Z,18.3
2023-05-25T09:39:01.941Z,18.3
2023-05-25T09:40:01.731Z,18.4
2023-05-25T09:41:02.512Z,18.4
2023-05-25T09:42:02.509Z,18.3
2023-05-25T09:43:01.131Z,18.3
2023-05-25T09:44:10.518Z,18.3
2023-05-25T09:45:01.812Z,18.1
2023-05-25T09:46:00.580Z,18.1
2023-05-25T09:47:00.280Z,18
2023-05-25T09:48:00.044Z,18
2023-05-25T09:48:59.773Z,17.9
2023-05-25T09:50:02.443Z,17.9
2023-05-25T09:51:01.517Z,17.8
2023-05-25T09:52:01.152Z,17.8
2023-05-25T09:53:01.038Z,17.8
2023-05-25T09:54:01.061Z,17.8
2023-05-25T09:55:01.048Z,17.8
2023-05-25T09:56:01.913Z,17.8
2023-05-25T09:57:00.844Z,17.9
2023-05-25T09:58:00.800Z,18
2023-05-25T09:59:00.475Z,18
2023-05-25T10:00:00.073Z,18.1
2023-05-25T10:01:00.184Z,18.1
2023-05-25T10:02:04.858Z,18.2
2023-05-25T10:03:01.704Z,18.3
2023-05-25T10:04:04.739Z,18.4
2023-05-25T10:05:01.592Z,18.5
2023-05-25T10:06:01.192Z,18.5
2023-05-25T10:07:07.906Z,18.5
2023-05-25T10:08:01.559Z,18.5
2023-05-25T10:09:00.527Z,18.5
2023-05-25T10:10:00.386Z,18.5
2023-05-25T10:11:00.480Z,18.5
2023-05-25T10:12:10.793Z,18.5
2023-05-25T10:13:02.551Z,18.5
2023-05-25T10:14:01.135Z,18.5
2023-05-25T10:15:01.534Z,18.5
2023-05-25T10:16:01.479Z,18.5
2023-05-25T10:17:16.060Z,18.5
2023-05-25T10:18:02.273Z,18.5
2023-05-25T10:19:01.122Z,18.5
2023-05-25T10:20:01.251Z,18.5
2023-05-25T10:21:01.643Z,18.5
2023-05-25T10:22:01.179Z,18.5
2023-05-25T10:23:01.148Z,18.5
2023-05-25T10:24:01.341Z,18.5
2023-05-25T10:25:01.064Z,18.5
2023-05-25T10:26:00.683Z,18.4
2023-05-25T10:27:03.237Z,18.4
2023-05-25T10:28:01.564Z,18.4
2023-05-25T10:29:01.288Z,18.4
2023-05-25T10:30:01.470Z,18.3
2023-05-25T10:31:01.124Z,18.4
2023-05-25T10:32:01.132Z,18.3
2023-05-25T10:33:01.426Z,18.3
2023-05-25T10:34:01.664Z,18.3
2023-05-25T10:35:01.465Z,18.3
2023-05-25T10:36:10.147Z,18.3
2023-05-25T10:37:01.477Z,18.3
2023-05-25T10:38:01.136Z,18.3
2023-05-25T10:39:01.142Z,18.3
2023-05-25T10:40:03.276Z,18.3
2023-05-25T10:41:01.850Z,18.3
2023-05-25T10:42:02.068Z,18.3
2023-05-25T10:43:01.056Z,18.3
2023-05-25T10:44:00.985Z,18.3
2023-05-25T10:45:00.779Z,18.3
2023-05-25T10:46:00.696Z,18.3
2023-05-25T10:47:00.451Z,18.2
2023-05-25T10:48:00.224Z,18.2
2023-05-25T10:48:59.944Z,18.1
2023-05-25T10:49:59.796Z,18.1
2023-05-25T10:51:01.814Z,18.1
2023-05-25T10:52:01.652Z,18.2
2023-05-25T10:53:01.345Z,18.2
2023-05-25T10:54:02.205Z,18.3
2023-05-25T10:55:02.576Z,18.3
2023-05-25T10:56:01.921Z,18.3
2023-05-25T10:57:01.052Z,18.4
2023-05-25T10:58:01.457Z,18.5
2023-05-25T10:59:01.560Z,18.5
2023-05-25T11:00:01.104Z,18.5
2023-05-25T11:01:01.968Z,18.6
2023-05-25T11:02:02.714Z,18.6
2023-05-25T11:03:02.023Z,18.6
2023-05-25T11:04:02.157Z,18.6
2023-05-25T11:05:01.493Z,18.6
2023-05-25T11:06:01.113Z,18.7
2023-05-25T11:07:01.653Z,18.7
2023-05-25T11:08:01.422Z,18.8
2023-05-25T11:09:01.047Z,18.8
2023-05-25T11:10:01.061Z,18.9
2023-05-25T11:11:01.793Z,19
2023-05-25T11:12:00.516Z,19
2023-05-25T11:13:00.213Z,19
2023-05-25T11:13:59.814Z,19.1
2023-05-25T11:15:01.450Z,19.1
2023-05-25T11:16:01.073Z,19.2
2023-05-25T11:17:01.124Z,19.2
2023-05-25T11:18:01.158Z,19.2
2023-05-25T11:19:01.308Z,19.2
2023-05-25T11:20:01.295Z,19.2
2023-05-25T11:21:01.127Z,19.3
2023-05-25T11:22:01.603Z,19.3
2023-05-25T11:23:00.972Z,19.3
2023-05-25T11:24:00.589Z,19.4
2023-05-25T11:25:00.344Z,19.4
2023-05-25T11:26:00.018Z,19.4
2023-05-25T11:26:59.849Z,19.5
2023-05-25T11:28:05.084Z,19.5
2023-05-25T11:29:01.921Z,19.5
2023-05-25T11:30:02.415Z,19.5
2023-05-25T11:31:01.125Z,19.5
2023-05-25T11:32:01.471Z,19.5
2023-05-25T11:33:04.782Z,19.5
2023-05-25T11:34:01.392Z,19.5
2023-05-25T11:35:01.091Z,19.5
2023-05-25T11:36:01.553Z,19.6
2023-05-25T11:37:01.114Z,19.6
2023-05-25T11:38:06.818Z,19.6
2023-05-25T11:39:06.639Z,19.6
2023-05-25T11:40:01.544Z,19.6
2023-05-25T11:41:01.923Z,19.6
2023-05-25T11:42:01.882Z,19.6
2023-05-25T11:43:09.844Z,19.6
2023-05-25T11:44:02.015Z,19.6
2023-05-25T11:45:02.133Z,19.6
2023-05-25T11:46:01.264Z,19.6
2023-05-25T11:47:00.697Z,19.6
2023-05-25T11:48:13.242Z,19.6
2023-05-25T11:49:02.239Z,19.6
2023-05-25T11:50:02.079Z,19.7
2023-05-25T11:51:02.101Z,19.8
2023-05-25T11:52:02.112Z,19.8
2023-05-25T11:53:16.560Z,19.8
2023-05-25T11:54:01.116Z,19.8
2023-05-25T11:55:01.120Z,19.8
2023-05-25T11:56:08.043Z,19.8
2023-05-25T11:57:01.415Z,19.9
2023-05-25T11:58:01.024Z,19.9
2023-05-25T11:59:01.056Z,19.9
2023-05-25T12:00:01.356Z,19.9
2023-05-25T12:01:01.435Z,19.8
2023-05-25T12:02:02.093Z,19.8
2023-05-25T12:03:01.165Z,19.8
2023-05-25T12:04:01.134Z,19.8
2023-05-25T12:05:02.320Z,19.7
2023-05-25T12:06:01.750Z,19.7
2023-05-25T12:07:01.427Z,19.8
2023-05-25T12:08:01.102Z,19.8
2023-05-25T12:09:01.218Z,19.8
2023-05-25T12:10:01.468Z,19.8
2023-05-25T12:11:03.989Z,20
2023-05-25T12:12:02.151Z,20
2023-05-25T12:13:01.225Z,20.1
2023-05-25T12:14:01.041Z,20.1
2023-05-25T12:15:01.021Z,20.2
2023-05-25T12:16:01.018Z,20.2
2023-05-25T12:17:01.095Z,20.3
2023-05-25T12:18:01.117Z,20.3
2023-05-25T12:19:01.267Z,20.3
2023-05-25T12:20:01.502Z,20.3
2023-05-25T12:21:03.887Z,20.3
2023-05-25T12:22:01.469Z,20.3
2023-05-25T12:23:01.192Z,20.3
2023-05-25T12:24:01.095Z,20.4
2023-05-25T12:25:01.109Z,20.5
2023-05-25T12:26:01.119Z,20.5
2023-05-25T12:27:00.697Z,20.5
2023-05-25T12:28:00.306Z,20.5
2023-05-25T12:29:00.148Z,20.5
2023-05-25T12:29:59.707Z,20.5
2023-05-25T12:31:01.496Z,20.6
2023-05-25T12:32:01.438Z,20.6
2023-05-25T12:33:03.718Z,20.6
2023-05-25T12:34:01.725Z,20.6
2023-05-25T12:35:01.911Z,20.6
2023-05-25T12:36:02.107Z,20.6
2023-05-25T12:37:01.523Z,20.6
2023-05-25T12:38:01.297Z,20.7
2023-05-25T12:39:01.990Z,20.7
2023-05-25T12:40:01.446Z,20.7
2023-05-25T12:41:01.060Z,20.7
2023-05-25T12:42:01.602Z,20.8
2023-05-25T12:43:01.161Z,20.8
2023-05-25T12:44:01.245Z,20.8
2023-05-25T12:45:01.195Z,20.8
2023-05-25T12:46:01.097Z,20.9
2023-05-25T12:47:00.898Z,20.9
2023-05-25T12:48:02.279Z,20.8
2023-05-25T12:49:01.138Z,20.9
2023-05-25T12:50:02.084Z,20.9
2023-05-25T12:51:01.376Z,20.9
2023-05-25T12:52:01.075Z,20.9
2023-05-25T12:53:01.033Z,20.9
2023-05-25T12:54:00.672Z,20.9
2023-05-25T12:55:00.364Z,20.8
2023-05-25T12:56:00.114Z,20.8
2023-05-25T12:56:59.906Z,20.8
2023-05-25T12:57:59.918Z,20.8
2023-05-25T12:58:59.900Z,20.8
2023-05-25T12:59:59.592Z,20.8
2023-05-25T13:01:01.894Z,20.8
2023-05-25T13:02:01.072Z,20.7
2023-05-25T13:03:01.089Z,20.6
2023-05-25T13:04:01.050Z,20.6
2023-05-25T13:05:01.280Z,20.5
2023-05-25T13:06:01.295Z,20.5
2023-05-25T13:07:01.302Z,20.4
2023-05-25T13:08:02.645Z,20.4
2023-05-25T13:09:01.955Z,20.3
2023-05-25T13:10:01.890Z,20.4
2023-05-25T13:11:01.055Z,20.3
2023-05-25T13:12:01.126Z,20.3
2023-05-25T13:13:01.246Z,20.4
2023-05-25T13:14:01.345Z,20.5
2023-05-25T13:15:04.102Z,20.5
2023-05-25T13:16:01.142Z,20.5
2023-05-25T13:17:01.022Z,20.6
2023-05-25T13:18:01.197Z,20.7
2023-05-25T13:19:04.565Z,20.8
2023-05-25T13:20:02.413Z,21
2023-05-25T13:21:01.330Z,21
2023-05-25T13:22:01.765Z,21.1
2023-05-25T13:23:01.455Z,21.1